This is the latest recevied weather packets stored in our database for station/object K4MZ. If no packets are shown the sender has not sent any weather packets the latest 10 day(s).
| Time | Temp. | Humidity | Pressure | Rain* | Wind** | Luminosity | Snow |
|---|---|---|---|---|---|---|---|
| 1778247918 | 14.44° C | 64% | 1017.5 hPa | 0 mm | - | 534 W/m² | - |
| 1778247338 | 13.89° C | 67% | 1017.4 hPa | 0 mm | - | 498 W/m² | - |
| 1778246759 | 14.44° C | 71% | 1017.4 hPa | 0 mm | - | 464 W/m² | - |
| 1778246118 | 15° C | 77% | 1017.4 hPa | 0 mm | - | 427 W/m² | - |
| 1778245519 | 13.89° C | 81% | 1017.4 hPa | 0 mm | - | 394 W/m² | - |
| 1778244938 | 13.33° C | 86% | 1017.4 hPa | 0 mm | - | 355 W/m² | - |
| 1778244339 | 12.78° C | 89% | 1017.4 hPa | 0 mm | - | 333 W/m² | - |
| 1778243739 | 11.67° C | 91% | 1017.3 hPa | 0 mm | - | 305 W/m² | - |
| 1778243159 | 11.11° C | 92% | 1017.2 hPa | 0 mm | - | 268 W/m² | - |
| 1778242539 | 10° C | 94% | 1017.1 hPa | 0 mm | - | 227 W/m² | - |
| 1778241917 | 8.89° C | 95% | 1017.1 hPa | 0 mm | - | 205 W/m² | - |
| 1778241317 | 7.78° C | 96% | 1017 hPa | 0 mm | - | 180 W/m² | - |
| 1778240740 | 7.22° C | 96% | 1017 hPa | 0 mm | - | 152 W/m² | - |
| 1778240181 | 6.11° C | 96% | 1016.8 hPa | 0 mm | - | 133 W/m² | - |
| 1778239517 | 5.56° C | 96% | 1016.6 hPa | 0 mm | - | 50 W/m² | - |
| 1778238918 | 5° C | 96% | 1016.4 hPa | 0 mm | - | 35 W/m² | - |
| 1778238318 | 5° C | 96% | 1016.3 hPa | 0 mm | - | 30 W/m² | - |
| 1778237717 | 5° C | 96% | 1016.1 hPa | 0 mm | - | 25 W/m² | - |
| 1778237219 | 4.44° C | 96% | 1016 hPa | 0 mm | - | 20 W/m² | - |
| 1778236518 | 4.44° C | 96% | 1016 hPa | 0 mm | - | 13 W/m² | - |
| 1778235958 | 5° C | 96% | 1015.9 hPa | 0 mm | - | 7 W/m² | - |
| 1778235318 | 5° C | 96% | 1015.7 hPa | 0 mm | - | 2 W/m² | - |
| 1778234779 | 5.56° C | 96% | 1015.6 hPa | 0 mm | - | 1 W/m² | - |
| 1778234119 | 5.56° C | 96% | 1015.3 hPa | 0 mm | - | 0 W/m² | - |
| 1778233579 | 5.56° C | 96% | 1015.3 hPa | 0 mm | - | 0 W/m² | - |
* Rain latest hour (hover to see other rain measurements)
** Current wind speed in m/s (hover to see current wind gust speed)